sensor_id;sensor_type;location;lat;lon;timestamp;P1;durP1;ratioP1;P2;durP2;ratioP2
59978;SDS011;45839;44.882;20.650;2023-02-13T00:02:16;60.40;;;31.77;;
59978;SDS011;45839;44.882;20.650;2023-02-13T00:04:42;51.13;;;31.17;;
59978;SDS011;45839;44.882;20.650;2023-02-13T00:07:08;56.33;;;31.67;;
59978;SDS011;45839;44.882;20.650;2023-02-13T00:09:36;51.55;;;30.88;;
59978;SDS011;45839;44.882;20.650;2023-02-13T00:12:02;58.75;;;32.22;;
59978;SDS011;45839;44.882;20.650;2023-02-13T00:14:28;49.08;;;28.73;;
59978;SDS011;45839;44.882;20.650;2023-02-13T00:16:54;50.90;;;28.95;;
59978;SDS011;45839;44.882;20.650;2023-02-13T00:19:20;50.22;;;29.00;;
59978;SDS011;45839;44.882;20.650;2023-02-13T00:21:46;48.42;;;29.05;;
59978;SDS011;45839;44.882;20.650;2023-02-13T00:24:12;51.65;;;29.35;;
59978;SDS011;45839;44.882;20.650;2023-02-13T00:26:39;46.80;;;28.67;;
59978;SDS011;45839;44.882;20.650;2023-02-13T00:29:05;53.70;;;30.77;;
59978;SDS011;45839;44.882;20.650;2023-02-13T00:31:31;51.85;;;31.70;;
59978;SDS011;45839;44.882;20.650;2023-02-13T00:33:57;53.42;;;31.30;;
59978;SDS011;45839;44.882;20.650;2023-02-13T00:36:23;54.70;;;31.15;;
59978;SDS011;45839;44.882;20.650;2023-02-13T00:38:49;54.33;;;31.23;;
59978;SDS011;45839;44.882;20.650;2023-02-13T00:41:16;53.20;;;31.15;;
59978;SDS011;45839;44.882;20.650;2023-02-13T00:43:42;59.25;;;33.50;;
59978;SDS011;45839;44.882;20.650;2023-02-13T00:46:09;59.88;;;32.63;;
59978;SDS011;45839;44.882;20.650;2023-02-13T00:48:36;56.53;;;31.80;;
59978;SDS011;45839;44.882;20.650;2023-02-13T00:51:02;56.20;;;32.33;;
59978;SDS011;45839;44.882;20.650;2023-02-13T00:53:29;47.63;;;28.63;;
59978;SDS011;45839;44.882;20.650;2023-02-13T00:55:55;52.50;;;29.80;;
59978;SDS011;45839;44.882;20.650;2023-02-13T00:58:22;52.67;;;29.58;;
59978;SDS011;45839;44.882;20.650;2023-02-13T01:00:48;57.95;;;31.58;;
59978;SDS011;45839;44.882;20.650;2023-02-13T01:03:16;47.70;;;29.05;;
59978;SDS011;45839;44.882;20.650;2023-02-13T01:05:42;47.63;;;28.38;;
59978;SDS011;45839;44.882;20.650;2023-02-13T01:08:08;51.42;;;29.63;;
59978;SDS011;45839;44.882;20.650;2023-02-13T01:10:35;50.25;;;27.98;;
59978;SDS011;45839;44.882;20.650;2023-02-13T01:13:02;46.08;;;27.10;;
59978;SDS011;45839;44.882;20.650;2023-02-13T01:15:30;48.75;;;28.73;;
59978;SDS011;45839;44.882;20.650;2023-02-13T01:17:56;53.10;;;30.98;;
59978;SDS011;45839;44.882;20.650;2023-02-13T01:20:23;60.40;;;33.20;;
59978;SDS011;45839;44.882;20.650;2023-02-13T01:22:49;67.68;;;35.58;;
59978;SDS011;45839;44.882;20.650;2023-02-13T01:25:16;58.10;;;32.55;;
59978;SDS011;45839;44.882;20.650;2023-02-13T01:27:42;60.85;;;32.30;;
59978;SDS011;45839;44.882;20.650;2023-02-13T01:30:09;53.15;;;31.08;;
59978;SDS011;45839;44.882;20.650;2023-02-13T01:32:37;57.67;;;30.85;;
59978;SDS011;45839;44.882;20.650;2023-02-13T01:35:04;56.60;;;31.73;;
59978;SDS011;45839;44.882;20.650;2023-02-13T01:37:30;52.05;;;30.33;;
59978;SDS011;45839;44.882;20.650;2023-02-13T01:39:56;59.42;;;32.97;;
59978;SDS011;45839;44.882;20.650;2023-02-13T01:42:26;53.90;;;31.42;;
59978;SDS011;45839;44.882;20.650;2023-02-13T01:44:57;61.78;;;32.95;;
59978;SDS011;45839;44.882;20.650;2023-02-13T01:52:53;59.83;;;33.72;;
59978;SDS011;45839;44.882;20.650;2023-02-13T01:55:20;61.22;;;32.97;;
59978;SDS011;45839;44.882;20.650;2023-02-13T01:57:48;56.08;;;31.70;;
59978;SDS011;45839;44.882;20.650;2023-02-13T02:00:16;55.80;;;32.35;;
59978;SDS011;45839;44.882;20.650;2023-02-13T02:02:44;57.33;;;31.75;;
59978;SDS011;45839;44.882;20.650;2023-02-13T02:05:12;54.08;;;29.83;;
59978;SDS011;45839;44.882;20.650;2023-02-13T02:07:39;55.08;;;31.27;;
59978;SDS011;45839;44.882;20.650;2023-02-13T02:10:10;53.22;;;31.75;;
59978;SDS011;45839;44.882;20.650;2023-02-13T02:12:43;56.08;;;32.47;;
59978;SDS011;45839;44.882;20.650;2023-02-13T02:15:11;56.97;;;31.80;;
59978;SDS011;45839;44.882;20.650;2023-02-13T02:17:38;59.45;;;32.90;;
59978;SDS011;45839;44.882;20.650;2023-02-13T02:34:12;57.80;;;34.40;;
59978;SDS011;45839;44.882;20.650;2023-02-13T02:38:41;64.63;;;36.15;;
59978;SDS011;45839;44.882;20.650;2023-02-13T02:46:36;65.90;;;35.88;;
59978;SDS011;45839;44.882;20.650;2023-02-13T02:54:31;62.70;;;37.22;;
59978;SDS011;45839;44.882;20.650;2023-02-13T02:57:21;63.10;;;36.92;;
59978;SDS011;45839;44.882;20.650;2023-02-13T02:59:49;69.43;;;38.78;;
59978;SDS011;45839;44.882;20.650;2023-02-13T03:02:35;68.30;;;37.50;;
59978;SDS011;45839;44.882;20.650;2023-02-13T03:05:28;61.45;;;35.90;;
59978;SDS011;45839;44.882;20.650;2023-02-13T03:08:14;65.30;;;37.78;;
59978;SDS011;45839;44.882;20.650;2023-02-13T03:11:00;63.70;;;37.45;;
59978;SDS011;45839;44.882;20.650;2023-02-13T03:13:46;66.13;;;39.08;;
59978;SDS011;45839;44.882;20.650;2023-02-13T03:16:14;64.32;;;38.20;;
59978;SDS011;45839;44.882;20.650;2023-02-13T03:19:01;70.30;;;41.08;;
59978;SDS011;45839;44.882;20.650;2023-02-13T03:21:54;69.35;;;40.90;;
59978;SDS011;45839;44.882;20.650;2023-02-13T03:35:24;66.07;;;38.47;;
59978;SDS011;45839;44.882;20.650;2023-02-13T03:41:03;64.50;;;37.47;;
59978;SDS011;45839;44.882;20.650;2023-02-13T03:46:20;64.55;;;36.33;;
59978;SDS011;45839;44.882;20.650;2023-02-13T03:48:46;62.97;;;37.08;;
59978;SDS011;45839;44.882;20.650;2023-02-13T03:51:35;65.63;;;36.47;;
59978;SDS011;45839;44.882;20.650;2023-02-13T03:54:07;62.17;;;36.25;;
59978;SDS011;45839;44.882;20.650;2023-02-13T03:56:38;72.40;;;41.55;;
59978;SDS011;45839;44.882;20.650;2023-02-13T03:59:31;73.93;;;41.65;;
59978;SDS011;45839;44.882;20.650;2023-02-13T04:02:00;72.88;;;42.30;;
59978;SDS011;45839;44.882;20.650;2023-02-13T04:04:38;73.97;;;43.15;;
59978;SDS011;45839;44.882;20.650;2023-02-13T04:07:10;71.80;;;41.78;;
59978;SDS011;45839;44.882;20.650;2023-02-13T04:09:53;74.18;;;42.67;;
59978;SDS011;45839;44.882;20.650;2023-02-13T04:12:20;72.00;;;43.63;;
59978;SDS011;45839;44.882;20.650;2023-02-13T04:14:57;76.80;;;43.80;;
59978;SDS011;45839;44.882;20.650;2023-02-13T04:17:58;75.82;;;44.15;;
59978;SDS011;45839;44.882;20.650;2023-02-13T04:20:17;77.32;;;43.75;;
59978;SDS011;45839;44.882;20.650;2023-02-13T04:22:44;81.95;;;45.63;;
59978;SDS011;45839;44.882;20.650;2023-02-13T04:25:13;80.78;;;45.55;;
59978;SDS011;45839;44.882;20.650;2023-02-13T04:27:40;75.38;;;43.83;;
59978;SDS011;45839;44.882;20.650;2023-02-13T04:30:06;71.57;;;42.17;;
59978;SDS011;45839;44.882;20.650;2023-02-13T04:32:33;73.18;;;43.33;;
59978;SDS011;45839;44.882;20.650;2023-02-13T04:34:59;73.25;;;43.50;;
59978;SDS011;45839;44.882;20.650;2023-02-13T04:37:25;78.13;;;43.10;;
59978;SDS011;45839;44.882;20.650;2023-02-13T04:39:51;79.35;;;44.67;;
59978;SDS011;45839;44.882;20.650;2023-02-13T04:42:17;75.57;;;44.38;;
59978;SDS011;45839;44.882;20.650;2023-02-13T04:44:43;85.85;;;48.35;;
59978;SDS011;45839;44.882;20.650;2023-02-13T04:47:09;84.50;;;47.10;;
59978;SDS011;45839;44.882;20.650;2023-02-13T04:49:35;83.88;;;48.72;;
59978;SDS011;45839;44.882;20.650;2023-02-13T04:52:02;92.53;;;50.17;;
59978;SDS011;45839;44.882;20.650;2023-02-13T04:54:28;91.50;;;51.17;;
59978;SDS011;45839;44.882;20.650;2023-02-13T04:56:54;91.47;;;51.30;;
59978;SDS011;45839;44.882;20.650;2023-02-13T04:59:20;100.78;;;53.72;;
59978;SDS011;45839;44.882;20.650;2023-02-13T05:01:46;93.07;;;50.42;;
59978;SDS011;45839;44.882;20.650;2023-02-13T05:04:12;91.78;;;51.65;;
59978;SDS011;45839;44.882;20.650;2023-02-13T05:06:40;86.05;;;48.92;;
59978;SDS011;45839;44.882;20.650;2023-02-13T05:09:06;91.65;;;50.78;;
59978;SDS011;45839;44.882;20.650;2023-02-13T05:11:32;94.82;;;52.70;;
59978;SDS011;45839;44.882;20.650;2023-02-13T05:13:58;89.68;;;51.47;;
59978;SDS011;45839;44.882;20.650;2023-02-13T05:16:24;90.80;;;51.90;;
59978;SDS011;45839;44.882;20.650;2023-02-13T05:18:50;89.88;;;49.30;;
59978;SDS011;45839;44.882;20.650;2023-02-13T05:21:19;92.63;;;51.17;;
59978;SDS011;45839;44.882;20.650;2023-02-13T05:24:04;92.53;;;51.55;;
59978;SDS011;45839;44.882;20.650;2023-02-13T05:26:30;92.57;;;51.28;;
59978;SDS011;45839;44.882;20.650;2023-02-13T05:28:56;85.55;;;49.17;;
59978;SDS011;45839;44.882;20.650;2023-02-13T05:31:40;93.72;;;50.78;;
59978;SDS011;45839;44.882;20.650;2023-02-13T05:34:06;91.47;;;52.20;;
59978;SDS011;45839;44.882;20.650;2023-02-13T05:36:33;97.75;;;52.20;;
59978;SDS011;45839;44.882;20.650;2023-02-13T05:38:59;97.35;;;53.90;;
59978;SDS011;45839;44.882;20.650;2023-02-13T05:41:25;98.30;;;53.78;;
59978;SDS011;45839;44.882;20.650;2023-02-13T05:43:51;94.43;;;53.80;;
59978;SDS011;45839;44.882;20.650;2023-02-13T05:46:17;102.38;;;56.67;;
59978;SDS011;45839;44.882;20.650;2023-02-13T05:48:43;109.50;;;57.60;;
59978;SDS011;45839;44.882;20.650;2023-02-13T05:51:09;108.93;;;59.42;;
59978;SDS011;45839;44.882;20.650;2023-02-13T05:53:35;107.88;;;57.97;;
59978;SDS011;45839;44.882;20.650;2023-02-13T05:56:02;102.65;;;58.53;;
59978;SDS011;45839;44.882;20.650;2023-02-13T05:58:28;103.10;;;57.72;;
59978;SDS011;45839;44.882;20.650;2023-02-13T06:00:54;107.75;;;57.97;;
59978;SDS011;45839;44.882;20.650;2023-02-13T06:03:22;103.57;;;57.97;;
59978;SDS011;45839;44.882;20.650;2023-02-13T06:05:48;105.85;;;58.50;;
59978;SDS011;45839;44.882;20.650;2023-02-13T06:08:14;104.93;;;56.65;;
59978;SDS011;45839;44.882;20.650;2023-02-13T06:10:40;107.18;;;59.92;;
59978;SDS011;45839;44.882;20.650;2023-02-13T06:13:06;102.85;;;57.08;;
59978;SDS011;45839;44.882;20.650;2023-02-13T06:15:32;110.15;;;58.03;;
59978;SDS011;45839;44.882;20.650;2023-02-13T06:17:58;105.85;;;58.22;;
59978;SDS011;45839;44.882;20.650;2023-02-13T06:20:25;106.25;;;58.83;;
59978;SDS011;45839;44.882;20.650;2023-02-13T06:22:51;107.00;;;60.20;;
59978;SDS011;45839;44.882;20.650;2023-02-13T06:25:18;110.85;;;59.50;;
59978;SDS011;45839;44.882;20.650;2023-02-13T06:27:44;102.25;;;59.30;;
59978;SDS011;45839;44.882;20.650;2023-02-13T06:30:10;103.65;;;58.00;;
59978;SDS011;45839;44.882;20.650;2023-02-13T06:32:36;98.07;;;57.65;;
59978;SDS011;45839;44.882;20.650;2023-02-13T06:35:02;94.55;;;54.70;;
59978;SDS011;45839;44.882;20.650;2023-02-13T06:37:28;92.90;;;52.20;;
59978;SDS011;45839;44.882;20.650;2023-02-13T06:39:54;77.30;;;45.08;;
59978;SDS011;45839;44.882;20.650;2023-02-13T06:42:20;78.60;;;46.00;;
59978;SDS011;45839;44.882;20.650;2023-02-13T06:44:47;79.15;;;45.00;;
59978;SDS011;45839;44.882;20.650;2023-02-13T06:47:13;90.30;;;50.03;;
59978;SDS011;45839;44.882;20.650;2023-02-13T06:49:39;90.63;;;50.78;;
59978;SDS011;45839;44.882;20.650;2023-02-13T06:52:05;90.90;;;51.72;;
59978;SDS011;45839;44.882;20.650;2023-02-13T06:54:31;82.68;;;47.55;;
59978;SDS011;45839;44.882;20.650;2023-02-13T06:56:57;81.00;;;47.05;;
59978;SDS011;45839;44.882;20.650;2023-02-13T06:59:23;88.75;;;50.63;;
59978;SDS011;45839;44.882;20.650;2023-02-13T07:01:49;92.57;;;52.15;;
59978;SDS011;45839;44.882;20.650;2023-02-13T07:04:15;113.95;;;61.42;;
59978;SDS011;45839;44.882;20.650;2023-02-13T07:06:41;149.13;;;81.57;;
59978;SDS011;45839;44.882;20.650;2023-02-13T07:09:07;165.02;;;90.55;;
59978;SDS011;45839;44.882;20.650;2023-02-13T07:11:33;171.48;;;93.95;;
59978;SDS011;45839;44.882;20.650;2023-02-13T07:13:59;186.27;;;101.00;;
59978;SDS011;45839;44.882;20.650;2023-02-13T07:16:25;188.05;;;100.30;;
59978;SDS011;45839;44.882;20.650;2023-02-13T07:18:51;197.30;;;104.75;;
59978;SDS011;45839;44.882;20.650;2023-02-13T07:21:17;203.48;;;108.07;;
59978;SDS011;45839;44.882;20.650;2023-02-13T07:23:43;199.38;;;109.40;;
59978;SDS011;45839;44.882;20.650;2023-02-13T07:26:09;188.05;;;105.45;;
59978;SDS011;45839;44.882;20.650;2023-02-13T07:28:35;186.38;;;101.07;;
59978;SDS011;45839;44.882;20.650;2023-02-13T07:31:04;171.05;;;94.35;;
59978;SDS011;45839;44.882;20.650;2023-02-13T07:33:31;168.20;;;92.28;;
59978;SDS011;45839;44.882;20.650;2023-02-13T07:35:57;167.63;;;90.70;;
59978;SDS011;45839;44.882;20.650;2023-02-13T07:38:23;164.63;;;88.65;;
59978;SDS011;45839;44.882;20.650;2023-02-13T07:40:49;160.70;;;92.30;;
59978;SDS011;45839;44.882;20.650;2023-02-13T07:43:15;168.52;;;95.65;;
59978;SDS011;45839;44.882;20.650;2023-02-13T07:45:41;180.68;;;98.28;;
59978;SDS011;45839;44.882;20.650;2023-02-13T07:48:07;173.90;;;97.47;;
59978;SDS011;45839;44.882;20.650;2023-02-13T07:50:35;194.63;;;103.65;;
59978;SDS011;45839;44.882;20.650;2023-02-13T07:53:01;172.15;;;97.88;;
59978;SDS011;45839;44.882;20.650;2023-02-13T07:55:28;180.20;;;95.00;;
59978;SDS011;45839;44.882;20.650;2023-02-13T07:57:54;167.02;;;89.65;;
59978;SDS011;45839;44.882;20.650;2023-02-13T08:00:20;159.05;;;88.72;;
59978;SDS011;45839;44.882;20.650;2023-02-13T08:02:47;173.90;;;91.88;;
59978;SDS011;45839;44.882;20.650;2023-02-13T08:05:13;158.63;;;87.55;;
59978;SDS011;45839;44.882;20.650;2023-02-13T08:07:39;159.80;;;86.90;;
59978;SDS011;45839;44.882;20.650;2023-02-13T08:10:06;155.73;;;86.63;;
59978;SDS011;45839;44.882;20.650;2023-02-13T08:12:51;131.32;;;71.43;;
59978;SDS011;45839;44.882;20.650;2023-02-13T08:15:17;118.65;;;65.57;;
59978;SDS011;45839;44.882;20.650;2023-02-13T08:17:46;114.57;;;61.88;;
59978;SDS011;45839;44.882;20.650;2023-02-13T08:20:12;101.43;;;59.05;;
59978;SDS011;45839;44.882;20.650;2023-02-13T08:22:39;104.65;;;56.35;;
59978;SDS011;45839;44.882;20.650;2023-02-13T08:25:06;102.05;;;60.08;;
59978;SDS011;45839;44.882;20.650;2023-02-13T08:27:32;116.13;;;61.55;;
59978;SDS011;45839;44.882;20.650;2023-02-13T08:29:58;101.43;;;55.78;;
59978;SDS011;45839;44.882;20.650;2023-02-13T08:32:26;106.00;;;60.28;;
59978;SDS011;45839;44.882;20.650;2023-02-13T08:34:52;103.68;;;59.33;;
59978;SDS011;45839;44.882;20.650;2023-02-13T08:37:18;111.43;;;60.60;;
59978;SDS011;45839;44.882;20.650;2023-02-13T08:39:44;119.15;;;64.40;;
59978;SDS011;45839;44.882;20.650;2023-02-13T08:42:10;128.60;;;72.63;;
59978;SDS011;45839;44.882;20.650;2023-02-13T08:44:36;159.27;;;84.75;;
59978;SDS011;45839;44.882;20.650;2023-02-13T08:47:05;147.43;;;81.15;;
59978;SDS011;45839;44.882;20.650;2023-02-13T08:49:31;133.60;;;75.22;;
59978;SDS011;45839;44.882;20.650;2023-02-13T08:51:58;126.47;;;72.18;;
59978;SDS011;45839;44.882;20.650;2023-02-13T08:54:24;121.30;;;65.70;;
59978;SDS011;45839;44.882;20.650;2023-02-13T08:56:51;137.95;;;74.70;;
59978;SDS011;45839;44.882;20.650;2023-02-13T08:59:17;116.93;;;63.25;;
59978;SDS011;45839;44.882;20.650;2023-02-13T09:01:44;117.90;;;64.95;;
59978;SDS011;45839;44.882;20.650;2023-02-13T09:04:10;105.60;;;60.45;;
59978;SDS011;45839;44.882;20.650;2023-02-13T09:06:36;74.32;;;44.90;;
59978;SDS011;45839;44.882;20.650;2023-02-13T09:09:05;72.45;;;43.63;;
59978;SDS011;45839;44.882;20.650;2023-02-13T09:11:31;68.75;;;42.60;;
59978;SDS011;45839;44.882;20.650;2023-02-13T09:13:58;78.18;;;45.25;;
59978;SDS011;45839;44.882;20.650;2023-02-13T09:16:24;71.65;;;41.25;;
59978;SDS011;45839;44.882;20.650;2023-02-13T09:18:50;68.85;;;41.60;;
59978;SDS011;45839;44.882;20.650;2023-02-13T09:21:16;64.30;;;40.60;;
59978;SDS011;45839;44.882;20.650;2023-02-13T09:23:42;64.43;;;37.72;;
59978;SDS011;45839;44.882;20.650;2023-02-13T09:26:10;65.68;;;39.65;;
59978;SDS011;45839;44.882;20.650;2023-02-13T09:28:36;64.25;;;38.22;;
59978;SDS011;45839;44.882;20.650;2023-02-13T09:31:13;64.63;;;39.55;;
59978;SDS011;45839;44.882;20.650;2023-02-13T09:33:39;66.40;;;39.17;;
59978;SDS011;45839;44.882;20.650;2023-02-13T09:36:09;67.50;;;38.63;;
59978;SDS011;45839;44.882;20.650;2023-02-13T09:38:37;57.47;;;35.72;;
59978;SDS011;45839;44.882;20.650;2023-02-13T09:41:07;58.72;;;35.95;;
59978;SDS011;45839;44.882;20.650;2023-02-13T09:43:45;53.15;;;33.58;;
59978;SDS011;45839;44.882;20.650;2023-02-13T09:46:18;47.88;;;30.50;;
59978;SDS011;45839;44.882;20.650;2023-02-13T09:48:46;45.90;;;27.60;;
59978;SDS011;45839;44.882;20.650;2023-02-13T09:51:17;44.42;;;25.35;;
59978;SDS011;45839;44.882;20.650;2023-02-13T09:53:51;42.92;;;25.70;;
59978;SDS011;45839;44.882;20.650;2023-02-13T09:56:23;39.70;;;24.95;;
59978;SDS011;45839;44.882;20.650;2023-02-13T09:58:57;42.78;;;26.35;;
59978;SDS011;45839;44.882;20.650;2023-02-13T10:06:26;35.90;;;22.55;;
59978;SDS011;45839;44.882;20.650;2023-02-13T10:16:26;31.15;;;20.02;;
59978;SDS011;45839;44.882;20.650;2023-02-13T10:18:54;35.05;;;21.13;;
59978;SDS011;45839;44.882;20.650;2023-02-13T10:21:23;36.80;;;20.73;;
59978;SDS011;45839;44.882;20.650;2023-02-13T10:24:03;33.22;;;21.08;;
59978;SDS011;45839;44.882;20.650;2023-02-13T10:26:31;34.92;;;21.92;;
59978;SDS011;45839;44.882;20.650;2023-02-13T10:31:58;28.88;;;18.25;;
59978;SDS011;45839;44.882;20.650;2023-02-13T10:34:25;31.63;;;18.73;;
59978;SDS011;45839;44.882;20.650;2023-02-13T10:36:53;28.48;;;18.27;;
59978;SDS011;45839;44.882;20.650;2023-02-13T10:39:23;33.42;;;20.02;;
59978;SDS011;45839;44.882;20.650;2023-02-13T10:47:08;27.30;;;17.38;;
59978;SDS011;45839;44.882;20.650;2023-02-13T10:55:21;34.03;;;22.42;;
59978;SDS011;45839;44.882;20.650;2023-02-13T11:00:35;36.78;;;22.85;;
59978;SDS011;45839;44.882;20.650;2023-02-13T11:03:02;34.28;;;21.05;;
59978;SDS011;45839;44.882;20.650;2023-02-13T11:05:32;30.13;;;18.50;;
59978;SDS011;45839;44.882;20.650;2023-02-13T11:08:01;37.58;;;23.80;;
59978;SDS011;45839;44.882;20.650;2023-02-13T11:10:27;28.17;;;17.17;;
59978;SDS011;45839;44.882;20.650;2023-02-13T11:12:53;28.48;;;18.38;;
59978;SDS011;45839;44.882;20.650;2023-02-13T11:15:27;29.02;;;18.50;;
59978;SDS011;45839;44.882;20.650;2023-02-13T11:17:55;26.88;;;16.75;;
59978;SDS011;45839;44.882;20.650;2023-02-13T11:22:48;29.58;;;17.10;;
59978;SDS011;45839;44.882;20.650;2023-02-13T11:27:43;25.98;;;15.90;;
59978;SDS011;45839;44.882;20.650;2023-02-13T11:32:41;24.35;;;15.05;;
59978;SDS011;45839;44.882;20.650;2023-02-13T11:35:28;25.33;;;15.32;;
59978;SDS011;45839;44.882;20.650;2023-02-13T11:40:43;26.13;;;16.25;;
59978;SDS011;45839;44.882;20.650;2023-02-13T11:48:43;23.35;;;15.13;;
59978;SDS011;45839;44.882;20.650;2023-02-13T11:51:21;26.42;;;18.27;;
59978;SDS011;45839;44.882;20.650;2023-02-13T11:53:59;28.38;;;18.02;;
59978;SDS011;45839;44.882;20.650;2023-02-13T11:56:25;25.05;;;16.60;;
59978;SDS011;45839;44.882;20.650;2023-02-13T11:59:00;27.15;;;18.85;;
59978;SDS011;45839;44.882;20.650;2023-02-13T12:01:26;28.92;;;19.02;;
59978;SDS011;45839;44.882;20.650;2023-02-13T12:03:57;28.38;;;18.33;;
59978;SDS011;45839;44.882;20.650;2023-02-13T12:06:29;28.27;;;19.25;;
59978;SDS011;45839;44.882;20.650;2023-02-13T12:09:03;28.73;;;18.40;;
59978;SDS011;45839;44.882;20.650;2023-02-13T12:11:34;27.90;;;18.33;;
59978;SDS011;45839;44.882;20.650;2023-02-13T12:14:01;27.83;;;18.08;;
59978;SDS011;45839;44.882;20.650;2023-02-13T12:16:29;28.77;;;18.15;;
59978;SDS011;45839;44.882;20.650;2023-02-13T12:18:59;28.52;;;19.50;;
59978;SDS011;45839;44.882;20.650;2023-02-13T12:21:43;25.10;;;17.00;;
59978;SDS011;45839;44.882;20.650;2023-02-13T12:26:39;29.65;;;19.70;;
59978;SDS011;45839;44.882;20.650;2023-02-13T12:39:40;27.73;;;19.10;;
59978;SDS011;45839;44.882;20.650;2023-02-13T12:47:14;28.13;;;17.73;;
59978;SDS011;45839;44.882;20.650;2023-02-13T12:52:13;24.88;;;17.40;;
59978;SDS011;45839;44.882;20.650;2023-02-13T12:54:54;26.88;;;18.85;;
59978;SDS011;45839;44.882;20.650;2023-02-13T13:17:48;25.63;;;17.27;;
59978;SDS011;45839;44.882;20.650;2023-02-13T13:23:21;25.92;;;16.98;;
59978;SDS011;45839;44.882;20.650;2023-02-13T13:25:56;26.38;;;18.48;;
59978;SDS011;45839;44.882;20.650;2023-02-13T13:28:48;26.63;;;16.85;;
59978;SDS011;45839;44.882;20.650;2023-02-13T13:31:13;27.67;;;17.75;;
59978;SDS011;45839;44.882;20.650;2023-02-13T13:33:40;25.80;;;17.50;;
59978;SDS011;45839;44.882;20.650;2023-02-13T13:38:56;27.35;;;19.42;;
59978;SDS011;45839;44.882;20.650;2023-02-13T13:41:34;27.27;;;18.38;;
59978;SDS011;45839;44.882;20.650;2023-02-13T13:51:52;24.27;;;17.35;;
59978;SDS011;45839;44.882;20.650;2023-02-13T13:54:19;26.50;;;17.52;;
59978;SDS011;45839;44.882;20.650;2023-02-13T14:02:25;26.92;;;17.20;;
59978;SDS011;45839;44.882;20.650;2023-02-13T14:07:33;26.13;;;16.95;;
59978;SDS011;45839;44.882;20.650;2023-02-13T14:10:00;24.35;;;17.05;;
59978;SDS011;45839;44.882;20.650;2023-02-13T14:14:52;23.40;;;16.38;;
59978;SDS011;45839;44.882;20.650;2023-02-13T14:20:14;22.08;;;15.50;;
59978;SDS011;45839;44.882;20.650;2023-02-13T14:22:42;23.83;;;14.88;;
59978;SDS011;45839;44.882;20.650;2023-02-13T14:28:04;21.17;;;14.35;;
59978;SDS011;45839;44.882;20.650;2023-02-13T14:30:31;21.33;;;14.65;;
59978;SDS011;45839;44.882;20.650;2023-02-13T14:33:02;23.35;;;14.13;;
59978;SDS011;45839;44.882;20.650;2023-02-13T14:35:30;23.02;;;14.27;;
59978;SDS011;45839;44.882;20.650;2023-02-13T14:37:57;22.65;;;14.75;;
59978;SDS011;45839;44.882;20.650;2023-02-13T14:43:14;21.67;;;14.55;;
59978;SDS011;45839;44.882;20.650;2023-02-13T14:45:46;21.55;;;14.63;;
59978;SDS011;45839;44.882;20.650;2023-02-13T14:48:13;25.83;;;16.42;;
59978;SDS011;45839;44.882;20.650;2023-02-13T14:50:44;21.45;;;14.10;;
59978;SDS011;45839;44.882;20.650;2023-02-13T14:53:25;20.77;;;13.68;;
59978;SDS011;45839;44.882;20.650;2023-02-13T14:56:05;18.65;;;13.18;;
59978;SDS011;45839;44.882;20.650;2023-02-13T14:58:32;491.08;;;287.25;;
59978;SDS011;45839;44.882;20.650;2023-02-13T15:03:37;152.23;;;99.82;;
59978;SDS011;45839;44.882;20.650;2023-02-13T15:06:11;110.97;;;68.57;;
59978;SDS011;45839;44.882;20.650;2023-02-13T15:08:44;78.70;;;50.10;;
59978;SDS011;45839;44.882;20.650;2023-02-13T15:11:13;72.07;;;45.92;;
59978;SDS011;45839;44.882;20.650;2023-02-13T15:16:44;23.92;;;16.50;;
59978;SDS011;45839;44.882;20.650;2023-02-13T15:19:13;23.83;;;16.48;;
59978;SDS011;45839;44.882;20.650;2023-02-13T15:21:45;21.48;;;15.05;;
59978;SDS011;45839;44.882;20.650;2023-02-13T15:24:12;22.55;;;15.45;;
59978;SDS011;45839;44.882;20.650;2023-02-13T15:26:39;25.85;;;16.10;;
59978;SDS011;45839;44.882;20.650;2023-02-13T15:29:16;23.85;;;16.35;;
59978;SDS011;45839;44.882;20.650;2023-02-13T15:31:43;25.45;;;17.55;;
59978;SDS011;45839;44.882;20.650;2023-02-13T15:36:47;25.65;;;16.50;;
59978;SDS011;45839;44.882;20.650;2023-02-13T15:39:17;30.30;;;17.42;;
59978;SDS011;45839;44.882;20.650;2023-02-13T15:41:47;26.83;;;18.83;;
59978;SDS011;45839;44.882;20.650;2023-02-13T15:44:22;25.88;;;18.48;;
59978;SDS011;45839;44.882;20.650;2023-02-13T15:46:49;29.75;;;20.15;;
59978;SDS011;45839;44.882;20.650;2023-02-13T15:49:23;30.67;;;19.42;;
59978;SDS011;45839;44.882;20.650;2023-02-13T15:51:50;30.58;;;19.85;;
59978;SDS011;45839;44.882;20.650;2023-02-13T15:54:27;36.33;;;20.35;;
59978;SDS011;45839;44.882;20.650;2023-02-13T15:56:56;30.83;;;19.27;;
59978;SDS011;45839;44.882;20.650;2023-02-13T15:59:23;34.13;;;21.75;;
59978;SDS011;45839;44.882;20.650;2023-02-13T16:01:50;33.03;;;20.60;;
59978;SDS011;45839;44.882;20.650;2023-02-13T16:04:17;33.70;;;22.02;;
59978;SDS011;45839;44.882;20.650;2023-02-13T16:06:44;36.92;;;22.20;;
59978;SDS011;45839;44.882;20.650;2023-02-13T16:11:58;41.45;;;23.75;;
59978;SDS011;45839;44.882;20.650;2023-02-13T16:14:25;40.60;;;26.55;;
59978;SDS011;45839;44.882;20.650;2023-02-13T16:16:54;40.00;;;23.27;;
59978;SDS011;45839;44.882;20.650;2023-02-13T16:21:53;42.63;;;26.38;;
59978;SDS011;45839;44.882;20.650;2023-02-13T16:24:20;44.30;;;26.25;;
59978;SDS011;45839;44.882;20.650;2023-02-13T16:26:46;39.25;;;26.17;;
59978;SDS011;45839;44.882;20.650;2023-02-13T16:29:18;44.70;;;28.25;;
59978;SDS011;45839;44.882;20.650;2023-02-13T16:31:44;45.25;;;27.90;;
59978;SDS011;45839;44.882;20.650;2023-02-13T16:34:14;44.42;;;28.40;;
59978;SDS011;45839;44.882;20.650;2023-02-13T16:36:40;42.08;;;27.48;;
59978;SDS011;45839;44.882;20.650;2023-02-13T16:39:10;46.95;;;28.30;;
59978;SDS011;45839;44.882;20.650;2023-02-13T16:41:41;51.55;;;29.83;;
59978;SDS011;45839;44.882;20.650;2023-02-13T16:44:20;51.70;;;28.85;;
59978;SDS011;45839;44.882;20.650;2023-02-13T16:46:47;46.20;;;26.35;;
59978;SDS011;45839;44.882;20.650;2023-02-13T16:49:15;44.22;;;26.60;;
59978;SDS011;45839;44.882;20.650;2023-02-13T16:59:19;45.70;;;28.23;;
59978;SDS011;45839;44.882;20.650;2023-02-13T17:01:46;50.72;;;31.75;;
59978;SDS011;45839;44.882;20.650;2023-02-13T17:04:21;54.30;;;33.88;;
59978;SDS011;45839;44.882;20.650;2023-02-13T17:06:47;145.40;;;72.68;;
59978;SDS011;45839;44.882;20.650;2023-02-13T17:09:13;104.20;;;58.28;;
59978;SDS011;45839;44.882;20.650;2023-02-13T17:11:40;92.93;;;47.45;;
59978;SDS011;45839;44.882;20.650;2023-02-13T17:14:06;75.18;;;42.30;;
59978;SDS011;45839;44.882;20.650;2023-02-13T17:16:32;72.80;;;41.50;;
59978;SDS011;45839;44.882;20.650;2023-02-13T17:18:58;83.15;;;45.00;;
59978;SDS011;45839;44.882;20.650;2023-02-13T17:21:24;97.90;;;62.80;;
59978;SDS011;45839;44.882;20.650;2023-02-13T17:23:50;94.78;;;60.75;;
59978;SDS011;45839;44.882;20.650;2023-02-13T17:26:16;81.05;;;55.03;;